Flight Track Log - Related Links

Times and Time Zones

All times are in EDT time to prevent confusion due to time zone crossing. See the SWA3511 flight status page for this flight to view local times or setup timezone preferences in your user account.


Time Position Orientation Groundspeed Altitude Reporting Facility
EDT Latitude Longitude Course Direction KTS MPH feet Rate Location/Type
Fri 03:31:59 PM 47.4333 -122.3114 182° South 171 197 1,100  Level Seattle Center
Fri 03:32:17 PM 47.4186 -122.3122 182° South 175 201 1,800 2,100 Climbing Seattle Center
Fri 03:33:19 PM 47.3581 -122.3108 179° South 216 249 3,900 2,244 Climbing Seattle Center
Fri 03:34:20 PM 47.2806 -122.3081 179° South 264 304 6,400 2,852 Climbing Seattle Center
Fri 03:35:21 PM 47.2078 -122.2725 162° South 275 316 9,700 2,705 Climbing Seattle Center
Fri 03:36:22 PM 47.1292 -122.2344 162° South 303 349 11,900 2,311 Climbing Seattle Center
Fri 03:37:23 PM 47.0417 -122.1967 164° South 329 379 14,400 2,508 Climbing Seattle Center
Fri 03:38:24 PM 46.9372 -122.1883 177° South 349 402 17,000 2,016 Climbing Seattle Center
Fri 03:39:25 PM 46.8550 -122.1811 177° South 365 420 18,500 1,918 Climbing Seattle Center
Fri 03:40:26 PM 46.7319 -122.1672 176° South 374 430 20,900 2,049 Climbing Seattle Center
Fri 03:41:28 PM 46.6231 -122.1597 177° South 391 450 22,700 1,756 Climbing Seattle Center
Fri 03:42:29 PM 46.5114 -122.1483 176° South 402 463 24,500 1,475 Climbing Seattle Center
Fri 03:43:30 PM 46.3975 -122.1347 175° South 414 476 25,700 1,279 Climbing Seattle Center
Fri 03:44:31 PM 46.2775 -122.1211 176° South 436 502 27,100 1,279 Climbing Seattle Center
Fri 03:45:32 PM 46.1508 -122.1083 176° South 445 512 28,300 1,328 Climbing Seattle Center
Fri 03:46:33 PM 46.0247 -122.0953 176° South 453 521 29,800 1,672 Climbing Seattle Center
Fri 03:47:34 PM 45.9017 -122.0822 176° South 444 511 31,700 1,623 Climbing Seattle Center
Fri 03:48:35 PM 45.7808 -122.0706 176° South 435 501 33,100 1,180 Climbing Seattle Center
Fri 03:49:36 PM 45.6572 -122.0589 176° South 441 507 34,100 934 Climbing Seattle Center
Fri 03:50:37 PM 45.5336 -122.0461 176° South 444 511 35,000 885 Climbing Seattle Center
Fri 03:51:38 PM 45.3814 -122.0306 176° South 454 522 35,900 836 Climbing Seattle Center
Fri 03:52:39 PM 45.2533 -122.0178 176° South 458 527 36,700 541 Climbing Seattle Center
Fri 03:53:40 PM 45.1253 -122.0050 176° South 460 529 37,000 148 Climbing Seattle Center
Fri 03:54:41 PM 44.9967 -121.9925 176° South 461 531 37,000  Level Seattle Center
Fri 03:55:42 PM 44.8708 -121.9786 176° South 469 540 37,000  Level Seattle Center
Fri 03:56:43 PM 44.7386 -121.9653 176° South 472 543 37,000  Level Seattle Center
Fri 03:57:44 PM 44.6075 -121.9528 176° South 472 543 37,000  Level Seattle Center
Fri 03:58:45 PM 44.4764 -121.9394 176° South 472 543 37,000  Level Seattle Center
Fri 03:59:46 PM 44.3433 -121.9272 176° South 475 547 37,000  Level Seattle Center
Fri 04:00:47 PM 44.2119 -121.9144 176° South 473 544 37,000  Level Seattle Center
Fri 04:01:48 PM 44.0806 -121.9019 176° South 472 543 37,000  Level Seattle Center
Fri 04:02:49 PM 43.9214 -121.8886 177° South 474 545 37,000  Level Seattle Center
Fri 04:03:50 PM 43.7864 -121.8764 176° South 479 551 37,000  Level Seattle Center
Fri 04:04:51 PM 43.6794 -121.8664 176° South 477 549 37,000  Level Seattle Center
Fri 04:05:52 PM 43.5211 -121.8517 176° South 477 549 37,000  Level Seattle Center
Fri 04:06:53 PM 43.3889 -121.8400 176° South 477 549 37,000  Level Seattle Center
Fri 04:07:54 PM 43.2556 -121.8278 176° South 480 552 37,000  Level Seattle Center
Fri 04:08:55 PM 43.1233 -121.8167 176° South 479 551 37,000  Level Seattle Center
Fri 04:09:56 PM 42.9892 -121.8039 176° South 483 556 37,000  Level Seattle Center
Fri 04:10:57 PM 42.8550 -121.7925 176° South 483 556 37,000  Level Seattle Center
Fri 04:11:58 PM 42.7225 -121.7800 176° South 480 552 37,000  Level Seattle Center
Fri 04:12:59 PM 42.5878 -121.7672 176° South 481 554 37,000  Level Seattle Center
Fri 04:14:00 PM 42.4550 -121.7544 176° South 480 552 37,000  Level Seattle Center
Fri 04:15:01 PM 42.3206 -121.7428 176° South 481 554 37,000  Level Seattle Center
Fri 04:16:02 PM 42.1850 -121.7306 176° South 482 555 37,000  Level Seattle Center
Fri 04:17:03 PM 42.0475 -121.7269 179° South 483 556 37,000  Level Seattle Center
Fri 04:18:04 PM 41.9117 -121.7264 180° South 478 550 37,000  Level Seattle Center
Fri 04:19:05 PM 41.7769 -121.7256 180° South 478 550 37,000  Level Seattle Center
Fri 04:20:07 PM 41.6428 -121.7250 180° South 480 552 37,000  Level Seattle Center
Fri 04:21:08 PM 41.5083 -121.7200 178° South 481 554 37,000  Level Seattle Center
Fri 04:22:09 PM 41.3728 -121.7114 177° South 484 557 37,000  Level Seattle Center
Fri 04:23:10 PM 41.2375 -121.7056 178° South 485 558 37,000  Level Seattle Center
Fri 04:24:11 PM 41.0750 -121.6972 178° South 488 562 37,000  Level Seattle Center
Fri 04:24:40 PM 41.0272 -121.6942 177° South 486 559 37,000  Level Oakland Center
Fri 04:25:42 PM 40.8908 -121.6864 178° South 488 562 37,000 -49 Level Oakland Center
Fri 04:26:43 PM 40.7281 -121.6781 178° South 487 560 36,900 -878 Descending Oakland Center
Fri 04:27:45 PM 40.5944 -121.6719 178° South 483 556 35,200 -2,244 Descending Oakland Center
Fri 04:28:46 PM 40.4636 -121.6658 178° South 473 544 32,300 -2,976 Descending Oakland Center
Fri 04:29:48 PM 40.3311 -121.6589 178° South 472 543 29,100 -2,732 Descending Oakland Center
Fri 04:30:49 PM 40.1983 -121.6528 178° South 473 544 26,700 -2,341 Descending Oakland Center
Fri 04:31:51 PM 40.0722 -121.6469 178° South 454 522 24,300 -2,226 Descending Oakland Center
Fri 04:32:53 PM 39.9503 -121.6414 178° South 439 505 22,100 -2,146 Descending Oakland Center
Fri 04:33:54 PM 39.8344 -121.6361 178° South 419 482 19,900 -2,146 Descending Oakland Center
Fri 04:34:56 PM 39.7256 -121.6297 177° South 394 453 17,700 -2,049 Descending Oakland Center
Fri 04:35:57 PM 39.6200 -121.6250 178° South 380 437 15,700 -2,146 Descending Oakland Center
Fri 04:36:59 PM 39.4994 -121.6203 178° South 361 415 13,300 -2,098 Descending Oakland Center
Fri 04:38:00 PM 39.4092 -121.6158 178° South 344 396 11,400 -1,512 Descending Oakland Center
Fri 04:39:02 PM 39.3181 -121.6128 179° South 330 380 10,200 -1,210 Descending Oakland Center
Fri 04:40:04 PM 39.2392 -121.6081 177° South 291 335 8,900 -1,366 Descending Oakland Center
Fri 04:41:05 PM 39.1600 -121.6047 178° South 285 328 7,400 -1,768 Descending Oakland Center
Fri 04:41:56 PM 39.0833 -121.6000 177° South 282 325 5,600 -1,730 Descending Northern Cal TRACON
Fri 04:42:56 PM 39.0167 -121.6000 180° South 277 319 4,200 -1,368 Descending Northern Cal TRACON
Fri 04:43:50 PM 38.9333 -121.6000 180° South 277 319 3,000 -1,211 Descending Northern Cal TRACON
Fri 04:44:50 PM 38.8667 -121.6000 180° South 262 302 1,900 -550 Descending Northern Cal TRACON
Fri 04:45:50 PM 38.8000 -121.6000 180° South 225 259 1,900 -550 Level Northern Cal TRACON
Fri 04:46:50 PM 38.7500 -121.6000 180° South 176 203 800 -900 Descending Northern Cal TRACON
Fri 04:47:50 PM 38.7000 -121.6000 180° South 138 159 100 -700 Descending Northern Cal TRACON
Fri 04:50:00 PM 38.6954 -121.5908 180° South  Level Estimated

Login

Don't have an account? Register now (free) for customized features, flight alerts, and more!